Amethyst — UBSH3 — position and weather

sailwx.info

Track history (hours):
 
Tides and Currents Weather Stations Pressure Air Temp Water Temp Dewpoint Dewpoint Depression Visibility Wind Speed Wind Dir Waves Ship Positions

Amethyst

Last reported at 2018-Jul-20 14:00 UTC. Time now 2018-Jul-20 14:03 UTC.
Position N 57°43' E 010°04'.

Length 90 m; draft 6.8 m.

Type: Cargo ship. MMSI: 273358930.

Date/timePositionNaut miles runAvg speedWind from/ knotsBaromVisibWave heightAir tempDewpointWater temp
2018-Jul-20 14:00N 57°43' E 010°04'6 8.3
2018-Jul-20 13:20N 57°46' E 010°13'3 8.3
2018-Jul-20 13:00N 57°47' E 010°17'5 8.1
2018-Jul-20 12:26N 57°49' E 010°26'3 8.1
2018-Jul-20 12:00N 57°49' E 010°32'4 7.8
2018-Jul-20 11:30N 57°49' E 010°39'4 7.6
2018-Jul-20 11:00N 57°48' E 010°47'4 8.8
2018-Jul-20 10:30N 57°47' E 010°54'5 9.3
2018-Jul-20 10:00N 57°44' E 011°02'5 9.5
2018-Jul-20 09:30N 57°42' E 011°10'510.3
2018-Jul-20 09:00N 57°40' E 011°18'5 9.9
2018-Jul-20 08:30N 57°38' E 011°27'510.0
2018-Jul-20 08:00N 57°37' E 011°36'4 8.3
2018-Jul-20 07:30N 57°39' E 011°43'3 6.2
2018-Jul-20 07:00N 57°40' E 011°48'0 0.2
2018-Jul-20 06:31N 57°40' E 011°48'0 0.0
2018-Jul-20 05:58N 57°40' E 011°48'0 0.0
2018-Jul-20 05:30N 57°40' E 011°48'0 0.0
2018-Jul-20 05:01N 57°40' E 011°48'0 0.8
2018-Jul-20 04:31N 57°40' E 011°47'4 7.2
2018-Jul-20 04:00N 57°38' E 011°42'510.0
2018-Jul-20 03:31N 57°33' E 011°37'510.2
2018-Jul-20 03:00N 57°28' E 011°38'5 9.8
2018-Jul-20 02:31N 57°23' E 011°38'5 9.5
2018-Jul-20 01:59N 57°18' E 011°38'5 9.5
2018-Jul-20 01:30N 57°14' E 011°39'5 9.5
2018-Jul-20 00:58N 57°09' E 011°39'4 9.5
2018-Jul-20 00:31N 57°05' E 011°42'6 9.3
2018-Jul-19 23:53N 56°59' E 011°46'4 9.1
2018-Jul-19 23:24N 56°55' E 011°49'7 9.0
2018-Jul-19 22:39N 56°49' E 011°53'46 9.0
2018-Jul-19 17:33N 56°08' E 012°32'1 9.1
2018-Jul-19 17:25N 56°07' E 012°33'4 9.2
2018-Jul-19 16:59N 56°04' E 012°38'4 8.3
2018-Jul-19 16:30N 56°01' E 012°41'4 8.1
2018-Jul-19 16:00N 55°57' E 012°43'4 7.9
2018-Jul-19 15:30N 55°53' E 012°44'4 8.3
2018-Jul-19 15:00N 55°49' E 012°43'5 9.1
2018-Jul-19 14:30N 55°44' E 012°42'9 8.9
2018-Jul-19 13:30N 55°35' E 012°42'4 8.7
2018-Jul-19 13:00N 55°31' E 012°43'5 9.1
2018-Jul-19 12:30N 55°27' E 012°42'5 9.0
2018-Jul-19 12:00N 55°22' E 012°42'4 7.9
2018-Jul-19 11:30N 55°18' E 012°43'5 9.1
2018-Jul-19 11:00N 55°17' E 012°51'5 9.2
2018-Jul-19 10:30N 55°16' E 012°59'5 9.5
2018-Jul-19 09:59N 55°16' E 013°07'5 9.6
2018-Jul-19 09:28N 55°15' E 013°16'11 9.4
2018-Jul-19 08:19N 55°15' E 013°35'3 9.3
2018-Jul-19 08:00N 55°15' E 013°40'7 9.3
2018-Jul-19 07:12N 55°14' E 013°53'3 9.5
2018-Jul-19 06:50N 55°14' E 013°59'3 9.7
2018-Jul-19 06:29N 55°14' E 014°05'5 9.7
2018-Jul-19 06:00N 55°14' E 014°14'7 9.4
2018-Jul-19 05:15N 55°18' E 014°23'4 9.8
2018-Jul-19 04:53N 55°21' E 014°27'4 9.8
2018-Jul-19 04:29N 55°24' E 014°31'6 8.8
2018-Jul-19 03:51N 55°27' E 014°40'4 9.0
2018-Jul-19 03:27N 55°27' E 014°47'5 8.8
2018-Jul-19 02:56N 55°27' E 014°55'4 8.8
2018-Jul-19 02:30N 55°28' E 015°01'5 9.1
2018-Jul-19 02:00N 55°28' E 015°09'4 9.0
2018-Jul-19 01:30N 55°29' E 015°17'5 9.1
2018-Jul-19 01:00N 55°29' E 015°25'5 9.3
2018-Jul-19 00:30N 55°29' E 015°33'5 9.3
2018-Jul-19 00:00N 55°30' E 015°41'5 9.3
2018-Jul-18 23:30N 55°30' E 015°50'5 9.2
2018-Jul-18 23:00N 55°31' E 015°58'5 9.1
2018-Jul-18 22:30N 55°31' E 016°06'5 9.1
2018-Jul-18 22:00N 55°31' E 016°14'5 9.1
2018-Jul-18 21:30N 55°32' E 016°22'5 9.2
2018-Jul-18 20:58N 55°32' E 016°30'4 9.4
2018-Jul-18 20:30N 55°32' E 016°38'5 9.5
2018-Jul-18 20:00N 55°33' E 016°47'5 9.4
2018-Jul-18 19:30N 55°33' E 016°55'5 9.3
2018-Jul-18 19:00N 55°33' E 017°03'5 9.3
2018-Jul-18 18:30N 55°34' E 017°11'5 9.3
2018-Jul-18 18:00N 55°34' E 017°19'5 9.3
2018-Jul-18 17:29N 55°35' E 017°28'4 9.3
2018-Jul-18 17:00N 55°35' E 017°36'5 9.2
2018-Jul-18 16:30N 55°35' E 017°44'5 9.2
2018-Jul-18 16:00N 55°36' E 017°52'5 9.2
2018-Jul-18 15:30N 55°36' E 017°60'5 9.4
2018-Jul-18 15:00N 55°36' E 018°08'5 9.4
2018-Jul-18 14:30N 55°37' E 018°17'9 9.4
2018-Jul-18 13:30N 55°38' E 018°33'5 9.4
2018-Jul-18 13:00N 55°38' E 018°41'5 9.4
2018-Jul-18 12:30N 55°39' E 018°50'5 9.4
2018-Jul-18 12:00N 55°39' E 018°58'5 9.5
2018-Jul-18 11:29N 55°39' E 019°07'  
2018-Jul-15 05:31N 55°43' E 021°06'0 8.0
2018-Jul-15 05:29N 55°44' E 021°05'50 3.2
2018-Jul-14 13:49N 55°38' E 019°38'410.7
2018-Jul-14 13:29N 55°37' E 019°32'510.8
2018-Jul-14 12:59N 55°36' E 019°22'510.7
2018-Jul-14 12:31N 55°36' E 019°13'510.6
2018-Jul-14 12:00N 55°35' E 019°04'510.6
2018-Jul-14 11:30N 55°34' E 018°55'510.7
2018-Jul-14 11:00N 55°33' E 018°45'510.3
2018-Jul-14 10:30N 55°31' E 018°37'510.5
2018-Jul-14 10:00N 55°28' E 018°30'510.5
2018-Jul-14 09:30N 55°24' E 018°23'510.6
2018-Jul-14 09:00N 55°20' E 018°17'610.8
2018-Jul-14 08:30N 55°17' E 018°09'510.8
2018-Jul-14 08:00N 55°13' E 018°03'510.6
2018-Jul-14 07:30N 55°09' E 017°56'2110.7
2018-Jul-14 05:32N 54°55' E 017°29'010.8
2018-Jul-14 05:30N 54°54' E 017°29'510.5
2018-Jul-14 04:59N 54°52' E 017°20'510.8
2018-Jul-14 04:30N 54°51' E 017°12'610.7
2018-Jul-14 03:59N 54°50' E 017°02'610.8
2018-Jul-14 03:25N 54°49' E 016°52'107 9.4
2018-Jul-13 16:05N 53°45' E 014°25'110.5
2018-Jul-13 16:00N 53°45' E 014°26'510.6
2018-Jul-13 15:30N 53°40' E 014°31'6 9.6
2018-Jul-13 14:56N 53°36' E 014°36'4 8.9
2018-Jul-13 14:30N 53°32' E 014°38'7 6.8
2018-Jul-13 13:29N 53°25' E 014°34'0 0.0
2018-Jul-13 12:51N 53°25' E 014°34'0 0.0
2018-Jul-13 12:27N 53°25' E 014°34'0 0.0
2018-Jul-13 11:57N 53°25' E 014°34'0 0.0
2018-Jul-13 11:24N 53°25' E 014°34'0 0.0
2018-Jul-13 10:54N 53°25' E 014°34'0 0.0
2018-Jul-13 10:27N 53°25' E 014°34'0 0.0
2018-Jul-13 09:57N 53°25' E 014°34'0 0.0
2018-Jul-13 09:24N 53°25' E 014°34'0 0.0
2018-Jul-13 09:00N 53°25' E 014°34'0 0.0
2018-Jul-13 08:30N 53°25' E 014°34'0 0.0
2018-Jul-13 07:57N 53°25' E 014°34'0 0.0
2018-Jul-13 07:27N 53°25' E 014°34'0 0.0
2018-Jul-13 06:57N 53°25' E 014°34'0 0.0
2018-Jul-13 06:27N 53°25' E 014°34'0 0.0
2018-Jul-13 05:54N 53°25' E 014°34'0 0.0
2018-Jul-13 05:30N 53°25' E 014°34'0 0.0
2018-Jul-13 05:00N 53°25' E 014°34'0 0.0
2018-Jul-13 04:30N 53°25' E 014°34'0 0.0
2018-Jul-13 03:54N 53°25' E 014°34'0 0.0
2018-Jul-13 03:30N 53°25' E 014°34'0 0.0
2018-Jul-13 03:00N 53°25' E 014°34'0 0.0
2018-Jul-13 02:24N 53°25' E 014°34'0 0.0
2018-Jul-13 02:00N 53°25' E 014°34'0 0.0
2018-Jul-13 01:30N 53°25' E 014°34'0 0.0
2018-Jul-13 01:00N 53°25' E 014°34'0 0.0
2018-Jul-13 00:30N 53°25' E 014°34'0 0.0
2018-Jul-12 23:57N 53°25' E 014°34'0 0.0
2018-Jul-12 23:27N 53°25' E 014°34'0 0.0
2018-Jul-12 22:57N 53°25' E 014°34'0 0.0
2018-Jul-12 22:24N 53°25' E 014°34'0 0.0
2018-Jul-12 21:57N 53°25' E 014°34'0 0.0
2018-Jul-12 21:30N 53°25' E 014°34'0 0.0
2018-Jul-12 20:54N 53°25' E 014°34'0 0.0
2018-Jul-12 20:30N 53°25' E 014°34'0 0.0
2018-Jul-12 20:00N 53°25' E 014°34'0 0.0
2018-Jul-12 19:30N 53°25' E 014°34'0 0.0
2018-Jul-12 18:57N 53°25' E 014°34'0 0.0
2018-Jul-12 18:27N 53°25' E 014°34'0 0.0
2018-Jul-12 17:54N 53°25' E 014°34'0 0.0
2018-Jul-12 17:30N 53°25' E 014°34'0 0.0
2018-Jul-12 16:57N 53°25' E 014°34'0 0.0
2018-Jul-12 16:27N 53°25' E 014°34'0 0.0
2018-Jul-12 16:00N 53°25' E 014°34'0 0.0
2018-Jul-12 15:30N 53°25' E 014°34'0 0.0
2018-Jul-12 15:00N 53°25' E 014°34'0 0.0
2018-Jul-12 14:30N 53°25' E 014°34'0 0.0
2018-Jul-12 14:00N 53°25' E 014°34'0 0.0
2018-Jul-12 13:30N 53°25' E 014°34'0 0.0
2018-Jul-12 13:00N 53°25' E 014°34'0 0.0
2018-Jul-12 12:27N 53°25' E 014°34'0 0.0
2018-Jul-12 11:54N 53°25' E 014°34'0 0.0
2018-Jul-12 11:27N 53°25' E 014°34'0 0.0
2018-Jul-12 11:00N 53°25' E 014°34'0 0.0
2018-Jul-12 10:30N 53°25' E 014°34'0 0.0
2018-Jul-12 09:57N 53°25' E 014°34'0 0.0
2018-Jul-12 09:30N 53°25' E 014°34'0 0.0
2018-Jul-12 08:54N 53°25' E 014°34'0 0.0
2018-Jul-12 08:29N 53°25' E 014°34'0 0.0
2018-Jul-12 07:59N 53°25' E 014°34'0 0.0
2018-Jul-12 07:30N 53°25' E 014°34'0 0.0
2018-Jul-12 07:00N 53°25' E 014°34'0 0.0
2018-Jul-12 06:30N 53°25' E 014°34'0 0.0
2018-Jul-12 05:57N 53°25' E 014°34'0 0.0
2018-Jul-12 05:27N 53°25' E 014°34'0 0.0
2018-Jul-12 04:48N 53°25' E 014°34'0 0.0
2018-Jul-12 04:20N 53°25' E 014°34'0 0.0
2018-Jul-12 04:00N 53°25' E 014°34'0 0.0
2018-Jul-12 03:30N 53°25' E 014°34'0 0.0
2018-Jul-12 02:57N 53°25' E 014°34'0 0.0
2018-Jul-12 02:30N 53°25' E 014°34'0 0.0
2018-Jul-12 02:00N 53°25' E 014°34'0 0.0
2018-Jul-12 01:27N 53°25' E 014°34'0 0.0
2018-Jul-12 00:57N 53°25' E 014°34'0 0.0
2018-Jul-12 00:30N 53°25' E 014°34'0 0.0
2018-Jul-11 23:57N 53°25' E 014°34'0 0.0
2018-Jul-11 23:27N 53°25' E 014°34'0 0.0
2018-Jul-11 23:00N 53°25' E 014°34'0 0.0
2018-Jul-11 22:30N 53°25' E 014°34'0 0.0
2018-Jul-11 21:59N 53°25' E 014°34'0 0.0
2018-Jul-11 21:30N 53°25' E 014°34'0 0.0
2018-Jul-11 20:56N 53°25' E 014°34'0 0.0
2018-Jul-11 20:24N 53°25' E 014°34'0 0.0
2018-Jul-11 20:00N 53°25' E 014°34'0 0.0
2018-Jul-11 19:29N 53°25' E 014°34'0 0.0
2018-Jul-11 18:56N 53°25' E 014°34'0 0.0
2018-Jul-11 18:26N 53°25' E 014°34'0 0.0
2018-Jul-11 17:59N 53°25' E 014°34'0 0.0
2018-Jul-11 17:24N 53°25' E 014°34'0 0.0
2018-Jul-11 16:59N 53°25' E 014°34'0 0.0
2018-Jul-11 16:26N 53°25' E 014°34'0 0.0
2018-Jul-11 15:53N 53°25' E 014°34'0 0.0
2018-Jul-11 15:29N 53°25' E 014°34'0 0.0
2018-Jul-11 14:56N 53°25' E 014°34'0 0.0
2018-Jul-11 14:29N 53°25' E 014°34'0 0.0
2018-Jul-11 13:57N 53°25' E 014°34'0 0.0
2018-Jul-11 13:26N 53°25' E 014°34'0 0.0
2018-Jul-11 12:56N 53°25' E 014°34'0 0.0
2018-Jul-11 12:29N 53°25' E 014°34'0 0.0
2018-Jul-11 11:56N 53°25' E 014°34'0 0.0
2018-Jul-11 11:26N 53°25' E 014°34'0 0.0
2018-Jul-11 10:56N 53°25' E 014°34'0 0.0
2018-Jul-11 10:14N 53°25' E 014°34'0 0.0
2018-Jul-11 09:56N 53°25' E 014°34'0 0.0
2018-Jul-11 09:26N 53°25' E 014°34'0 0.0
2018-Jul-11 08:56N 53°25' E 014°34'0 0.0
2018-Jul-11 08:20N 53°25' E 014°34'0 0.0
2018-Jul-11 07:59N 53°25' E 014°34'0 0.0
2018-Jul-11 07:23N 53°25' E 014°34'0 0.0
2018-Jul-11 06:59N 53°25' E 014°34'0 0.0
2018-Jul-11 06:26N 53°25' E 014°34'0 0.0
2018-Jul-11 05:59N 53°25' E 014°34'0 0.0
2018-Jul-11 05:26N 53°25' E 014°34'0 0.0
2018-Jul-11 04:56N 53°25' E 014°34'0 0.0
2018-Jul-11 04:20N 53°25' E 014°34'0 0.0
2018-Jul-11 03:56N 53°25' E 014°34'0 0.0
2018-Jul-11 03:26N 53°25' E 014°34'0 0.0
2018-Jul-11 02:56N 53°25' E 014°34'0 0.0
2018-Jul-11 02:29N 53°25' E 014°34'0 0.0
2018-Jul-11 01:59N 53°25' E 014°34'0 0.0
2018-Jul-11 01:26N 53°25' E 014°34'0 0.0
2018-Jul-11 00:56N 53°25' E 014°34'0 0.0
2018-Jul-11 00:26N 53°25' E 014°34'0 0.0
2018-Jul-10 23:53N 53°25' E 014°34'0 0.0
2018-Jul-10 23:29N 53°25' E 014°34'0 0.0
2018-Jul-10 22:56N 53°25' E 014°34'0 0.0
2018-Jul-10 22:29N 53°25' E 014°34'0 0.0
2018-Jul-10 21:53N 53°25' E 014°34'0 0.0
2018-Jul-10 21:23N 53°25' E 014°34'0 0.0
2018-Jul-10 20:56N 53°25' E 014°34'0 0.0
2018-Jul-10 20:23N 53°25' E 014°34'0 0.0
2018-Jul-10 19:56N 53°25' E 014°34'0 0.0
2018-Jul-10 19:17N 53°25' E 014°34'0 0.0
2018-Jul-10 18:53N 53°25' E 014°34'0 0.0
2018-Jul-10 18:29N 53°25' E 014°34'0 0.0
2018-Jul-10 17:59N 53°25' E 014°34'0 0.0
2018-Jul-10 17:29N 53°25' E 014°34'0 0.0
2018-Jul-10 16:56N 53°25' E 014°34'0 0.0
2018-Jul-10 16:29N 53°25' E 014°34'0 0.0
2018-Jul-10 15:59N 53°25' E 014°34'0 0.0
2018-Jul-10 15:29N 53°25' E 014°34'0 0.0
2018-Jul-10 14:59N 53°25' E 014°34'0 0.0
2018-Jul-10 14:26N 53°25' E 014°34'0 0.0
2018-Jul-10 13:56N 53°25' E 014°34'0 0.0
2018-Jul-10 13:23N 53°25' E 014°34'  
Track history (hours):
 
Tides and Currents Weather Stations Pressure Air Temp Water Temp Dewpoint Dewpoint Depression Visibility Wind Speed Wind Dir Waves Ship Positions

Amethyst

Last reported at 2018-Jul-20 14:00 UTC. Time now 2018-Jul-20 14:03 UTC.
Position N 57°43' E 010°04'.

Length 90 m; draft 6.8 m.

Type: Cargo ship. MMSI: 273358930.

Date/timePositionNaut miles runAvg speedWind from/ knotsBaromVisibWave heightAir tempDewpointWater temp
2018-Jul-20 14:00N 57°43' E 010°04'6 8.3
2018-Jul-20 13:20N 57°46' E 010°13'3 8.3
2018-Jul-20 13:00N 57°47' E 010°17'5 8.1
2018-Jul-20 12:26N 57°49' E 010°26'3 8.1
2018-Jul-20 12:00N 57°49' E 010°32'4 7.8
2018-Jul-20 11:30N 57°49' E 010°39'4 7.6
2018-Jul-20 11:00N 57°48' E 010°47'4 8.8
2018-Jul-20 10:30N 57°47' E 010°54'5 9.3
2018-Jul-20 10:00N 57°44' E 011°02'5 9.5
2018-Jul-20 09:30N 57°42' E 011°10'510.3
2018-Jul-20 09:00N 57°40' E 011°18'5 9.9
2018-Jul-20 08:30N 57°38' E 011°27'510.0
2018-Jul-20 08:00N 57°37' E 011°36'4 8.3
2018-Jul-20 07:30N 57°39' E 011°43'3 6.2
2018-Jul-20 07:00N 57°40' E 011°48'0 0.2
2018-Jul-20 06:31N 57°40' E 011°48'0 0.0
2018-Jul-20 05:58N 57°40' E 011°48'0 0.0
2018-Jul-20 05:30N 57°40' E 011°48'0 0.0
2018-Jul-20 05:01N 57°40' E 011°48'0 0.8
2018-Jul-20 04:31N 57°40' E 011°47'4 7.2
2018-Jul-20 04:00N 57°38' E 011°42'510.0
2018-Jul-20 03:31N 57°33' E 011°37'510.2
2018-Jul-20 03:00N 57°28' E 011°38'5 9.8
2018-Jul-20 02:31N 57°23' E 011°38'5 9.5
2018-Jul-20 01:59N 57°18' E 011°38'5 9.5
2018-Jul-20 01:30N 57°14' E 011°39'5 9.5
2018-Jul-20 00:58N 57°09' E 011°39'4 9.5
2018-Jul-20 00:31N 57°05' E 011°42'6 9.3
2018-Jul-19 23:53N 56°59' E 011°46'4 9.1
2018-Jul-19 23:24N 56°55' E 011°49'7 9.0
2018-Jul-19 22:39N 56°49' E 011°53'46 9.0
2018-Jul-19 17:33N 56°08' E 012°32'1 9.1
2018-Jul-19 17:25N 56°07' E 012°33'4 9.2
2018-Jul-19 16:59N 56°04' E 012°38'4 8.3
2018-Jul-19 16:30N 56°01' E 012°41'4 8.1
2018-Jul-19 16:00N 55°57' E 012°43'4 7.9
2018-Jul-19 15:30N 55°53' E 012°44'4 8.3
2018-Jul-19 15:00N 55°49' E 012°43'5 9.1
2018-Jul-19 14:30N 55°44' E 012°42'9 8.9
2018-Jul-19 13:30N 55°35' E 012°42'4 8.7
2018-Jul-19 13:00N 55°31' E 012°43'5 9.1
2018-Jul-19 12:30N 55°27' E 012°42'5 9.0
2018-Jul-19 12:00N 55°22' E 012°42'4 7.9
2018-Jul-19 11:30N 55°18' E 012°43'5 9.1
2018-Jul-19 11:00N 55°17' E 012°51'5 9.2
2018-Jul-19 10:30N 55°16' E 012°59'5 9.5
2018-Jul-19 09:59N 55°16' E 013°07'5 9.6
2018-Jul-19 09:28N 55°15' E 013°16'11 9.4
2018-Jul-19 08:19N 55°15' E 013°35'3 9.3
2018-Jul-19 08:00N 55°15' E 013°40'7 9.3
2018-Jul-19 07:12N 55°14' E 013°53'3 9.5
2018-Jul-19 06:50N 55°14' E 013°59'3 9.7
2018-Jul-19 06:29N 55°14' E 014°05'5 9.7
2018-Jul-19 06:00N 55°14' E 014°14'7 9.4
2018-Jul-19 05:15N 55°18' E 014°23'4 9.8
2018-Jul-19 04:53N 55°21' E 014°27'4 9.8
2018-Jul-19 04:29N 55°24' E 014°31'6 8.8
2018-Jul-19 03:51N 55°27' E 014°40'4 9.0
2018-Jul-19 03:27N 55°27' E 014°47'5 8.8
2018-Jul-19 02:56N 55°27' E 014°55'4 8.8
2018-Jul-19 02:30N 55°28' E 015°01'5 9.1
2018-Jul-19 02:00N 55°28' E 015°09'4 9.0
2018-Jul-19 01:30N 55°29' E 015°17'5 9.1
2018-Jul-19 01:00N 55°29' E 015°25'5 9.3
2018-Jul-19 00:30N 55°29' E 015°33'5 9.3
2018-Jul-19 00:00N 55°30' E 015°41'5 9.3
2018-Jul-18 23:30N 55°30' E 015°50'5 9.2
2018-Jul-18 23:00N 55°31' E 015°58'5 9.1
2018-Jul-18 22:30N 55°31' E 016°06'5 9.1
2018-Jul-18 22:00N 55°31' E 016°14'5 9.1
2018-Jul-18 21:30N 55°32' E 016°22'5 9.2
2018-Jul-18 20:58N 55°32' E 016°30'4 9.4
2018-Jul-18 20:30N 55°32' E 016°38'5 9.5
2018-Jul-18 20:00N 55°33' E 016°47'5 9.4
2018-Jul-18 19:30N 55°33' E 016°55'5 9.3
2018-Jul-18 19:00N 55°33' E 017°03'5 9.3
2018-Jul-18 18:30N 55°34' E 017°11'5 9.3
2018-Jul-18 18:00N 55°34' E 017°19'5 9.3
2018-Jul-18 17:29N 55°35' E 017°28'4 9.3
2018-Jul-18 17:00N 55°35' E 017°36'5 9.2
2018-Jul-18 16:30N 55°35' E 017°44'5 9.2
2018-Jul-18 16:00N 55°36' E 017°52'5 9.2
2018-Jul-18 15:30N 55°36' E 017°60'5 9.4
2018-Jul-18 15:00N 55°36' E 018°08'5 9.4
2018-Jul-18 14:30N 55°37' E 018°17'9 9.4
2018-Jul-18 13:30N 55°38' E 018°33'5 9.4
2018-Jul-18 13:00N 55°38' E 018°41'5 9.4
2018-Jul-18 12:30N 55°39' E 018°50'5 9.4
2018-Jul-18 12:00N 55°39' E 018°58'5 9.5
2018-Jul-18 11:29N 55°39' E 019°07'  
2018-Jul-15 05:31N 55°43' E 021°06'0 8.0
2018-Jul-15 05:29N 55°44' E 021°05'50 3.2
2018-Jul-14 13:49N 55°38' E 019°38'410.7
2018-Jul-14 13:29N 55°37' E 019°32'510.8
2018-Jul-14 12:59N 55°36' E 019°22'510.7
2018-Jul-14 12:31N 55°36' E 019°13'510.6
2018-Jul-14 12:00N 55°35' E 019°04'510.6
2018-Jul-14 11:30N 55°34' E 018°55'510.7
2018-Jul-14 11:00N 55°33' E 018°45'510.3
2018-Jul-14 10:30N 55°31' E 018°37'510.5
2018-Jul-14 10:00N 55°28' E 018°30'510.5
2018-Jul-14 09:30N 55°24' E 018°23'510.6
2018-Jul-14 09:00N 55°20' E 018°17'610.8
2018-Jul-14 08:30N 55°17' E 018°09'510.8
2018-Jul-14 08:00N 55°13' E 018°03'510.6
2018-Jul-14 07:30N 55°09' E 017°56'2110.7
2018-Jul-14 05:32N 54°55' E 017°29'010.8
2018-Jul-14 05:30N 54°54' E 017°29'510.5
2018-Jul-14 04:59N 54°52' E 017°20'510.8
2018-Jul-14 04:30N 54°51' E 017°12'610.7
2018-Jul-14 03:59N 54°50' E 017°02'610.8
2018-Jul-14 03:25N 54°49' E 016°52'107 9.4
2018-Jul-13 16:05N 53°45' E 014°25'110.5
2018-Jul-13 16:00N 53°45' E 014°26'510.6
2018-Jul-13 15:30N 53°40' E 014°31'6 9.6
2018-Jul-13 14:56N 53°36' E 014°36'4 8.9
2018-Jul-13 14:30N 53°32' E 014°38'7 6.8
2018-Jul-13 13:29N 53°25' E 014°34'0 0.0
2018-Jul-13 12:51N 53°25' E 014°34'0 0.0
2018-Jul-13 12:27N 53°25' E 014°34'0 0.0
2018-Jul-13 11:57N 53°25' E 014°34'0 0.0
2018-Jul-13 11:24N 53°25' E 014°34'0 0.0
2018-Jul-13 10:54N 53°25' E 014°34'0 0.0
2018-Jul-13 10:27N 53°25' E 014°34'0 0.0
2018-Jul-13 09:57N 53°25' E 014°34'0 0.0
2018-Jul-13 09:24N 53°25' E 014°34'0 0.0
2018-Jul-13 09:00N 53°25' E 014°34'0 0.0
2018-Jul-13 08:30N 53°25' E 014°34'0 0.0
2018-Jul-13 07:57N 53°25' E 014°34'0 0.0
2018-Jul-13 07:27N 53°25' E 014°34'0 0.0
2018-Jul-13 06:57N 53°25' E 014°34'0 0.0
2018-Jul-13 06:27N 53°25' E 014°34'0 0.0
2018-Jul-13 05:54N 53°25' E 014°34'0 0.0
2018-Jul-13 05:30N 53°25' E 014°34'0 0.0
2018-Jul-13 05:00N 53°25' E 014°34'0 0.0
2018-Jul-13 04:30N 53°25' E 014°34'0 0.0
2018-Jul-13 03:54N 53°25' E 014°34'0 0.0
2018-Jul-13 03:30N 53°25' E 014°34'0 0.0
2018-Jul-13 03:00N 53°25' E 014°34'0 0.0
2018-Jul-13 02:24N 53°25' E 014°34'0 0.0
2018-Jul-13 02:00N 53°25' E 014°34'0 0.0
2018-Jul-13 01:30N 53°25' E 014°34'0 0.0
2018-Jul-13 01:00N 53°25' E 014°34'0 0.0
2018-Jul-13 00:30N 53°25' E 014°34'0 0.0
2018-Jul-12 23:57N 53°25' E 014°34'0 0.0
2018-Jul-12 23:27N 53°25' E 014°34'0 0.0
2018-Jul-12 22:57N 53°25' E 014°34'0 0.0
2018-Jul-12 22:24N 53°25' E 014°34'0 0.0
2018-Jul-12 21:57N 53°25' E 014°34'0 0.0
2018-Jul-12 21:30N 53°25' E 014°34'0 0.0
2018-Jul-12 20:54N 53°25' E 014°34'0 0.0
2018-Jul-12 20:30N 53°25' E 014°34'0 0.0
2018-Jul-12 20:00N 53°25' E 014°34'0 0.0
2018-Jul-12 19:30N 53°25' E 014°34'0 0.0
2018-Jul-12 18:57N 53°25' E 014°34'0 0.0
2018-Jul-12 18:27N 53°25' E 014°34'0 0.0
2018-Jul-12 17:54N 53°25' E 014°34'0 0.0
2018-Jul-12 17:30N 53°25' E 014°34'0 0.0
2018-Jul-12 16:57N 53°25' E 014°34'0 0.0
2018-Jul-12 16:27N 53°25' E 014°34'0 0.0
2018-Jul-12 16:00N 53°25' E 014°34'0 0.0
2018-Jul-12 15:30N 53°25' E 014°34'0 0.0
2018-Jul-12 15:00N 53°25' E 014°34'0 0.0
2018-Jul-12 14:30N 53°25' E 014°34'0 0.0
2018-Jul-12 14:00N 53°25' E 014°34'0 0.0
2018-Jul-12 13:30N 53°25' E 014°34'0 0.0
2018-Jul-12 13:00N 53°25' E 014°34'0 0.0
2018-Jul-12 12:27N 53°25' E 014°34'0 0.0
2018-Jul-12 11:54N 53°25' E 014°34'0 0.0
2018-Jul-12 11:27N 53°25' E 014°34'0 0.0
2018-Jul-12 11:00N 53°25' E 014°34'0 0.0
2018-Jul-12 10:30N 53°25' E 014°34'0 0.0
2018-Jul-12 09:57N 53°25' E 014°34'0 0.0
2018-Jul-12 09:30N 53°25' E 014°34'0 0.0
2018-Jul-12 08:54N 53°25' E 014°34'0 0.0
2018-Jul-12 08:29N 53°25' E 014°34'0 0.0
2018-Jul-12 07:59N 53°25' E 014°34'0 0.0
2018-Jul-12 07:30N 53°25' E 014°34'0 0.0
2018-Jul-12 07:00N 53°25' E 014°34'0 0.0
2018-Jul-12 06:30N 53°25' E 014°34'0 0.0
2018-Jul-12 05:57N 53°25' E 014°34'0 0.0
2018-Jul-12 05:27N 53°25' E 014°34'0 0.0
2018-Jul-12 04:48N 53°25' E 014°34'0 0.0
2018-Jul-12 04:20N 53°25' E 014°34'0 0.0
2018-Jul-12 04:00N 53°25' E 014°34'0 0.0
2018-Jul-12 03:30N 53°25' E 014°34'0 0.0
2018-Jul-12 02:57N 53°25' E 014°34'0 0.0
2018-Jul-12 02:30N 53°25' E 014°34'0 0.0
2018-Jul-12 02:00N 53°25' E 014°34'0 0.0
2018-Jul-12 01:27N 53°25' E 014°34'0 0.0
2018-Jul-12 00:57N 53°25' E 014°34'0 0.0
2018-Jul-12 00:30N 53°25' E 014°34'0 0.0
2018-Jul-11 23:57N 53°25' E 014°34'0 0.0
2018-Jul-11 23:27N 53°25' E 014°34'0 0.0
2018-Jul-11 23:00N 53°25' E 014°34'0 0.0
2018-Jul-11 22:30N 53°25' E 014°34'0 0.0
2018-Jul-11 21:59N 53°25' E 014°34'0 0.0
2018-Jul-11 21:30N 53°25' E 014°34'0 0.0
2018-Jul-11 20:56N 53°25' E 014°34'0 0.0
2018-Jul-11 20:24N 53°25' E 014°34'0 0.0
2018-Jul-11 20:00N 53°25' E 014°34'0 0.0
2018-Jul-11 19:29N 53°25' E 014°34'0 0.0
2018-Jul-11 18:56N 53°25' E 014°34'0 0.0
2018-Jul-11 18:26N 53°25' E 014°34'0 0.0
2018-Jul-11 17:59N 53°25' E 014°34'0 0.0
2018-Jul-11 17:24N 53°25' E 014°34'0 0.0
2018-Jul-11 16:59N 53°25' E 014°34'0 0.0
2018-Jul-11 16:26N 53°25' E 014°34'0 0.0
2018-Jul-11 15:53N 53°25' E 014°34'0 0.0
2018-Jul-11 15:29N 53°25' E 014°34'0 0.0
2018-Jul-11 14:56N 53°25' E 014°34'0 0.0
2018-Jul-11 14:29N 53°25' E 014°34'0 0.0
2018-Jul-11 13:57N 53°25' E 014°34'0 0.0
2018-Jul-11 13:26N 53°25' E 014°34'0 0.0
2018-Jul-11 12:56N 53°25' E 014°34'0 0.0
2018-Jul-11 12:29N 53°25' E 014°34'0 0.0
2018-Jul-11 11:56N 53°25' E 014°34'0 0.0
2018-Jul-11 11:26N 53°25' E 014°34'0 0.0
2018-Jul-11 10:56N 53°25' E 014°34'0 0.0
2018-Jul-11 10:14N 53°25' E 014°34'0 0.0
2018-Jul-11 09:56N 53°25' E 014°34'0 0.0
2018-Jul-11 09:26N 53°25' E 014°34'0 0.0
2018-Jul-11 08:56N 53°25' E 014°34'0 0.0
2018-Jul-11 08:20N 53°25' E 014°34'0 0.0
2018-Jul-11 07:59N 53°25' E 014°34'0 0.0
2018-Jul-11 07:23N 53°25' E 014°34'0 0.0
2018-Jul-11 06:59N 53°25' E 014°34'0 0.0
2018-Jul-11 06:26N 53°25' E 014°34'0 0.0
2018-Jul-11 05:59N 53°25' E 014°34'0 0.0
2018-Jul-11 05:26N 53°25' E 014°34'0 0.0
2018-Jul-11 04:56N 53°25' E 014°34'0 0.0
2018-Jul-11 04:20N 53°25' E 014°34'0 0.0
2018-Jul-11 03:56N 53°25' E 014°34'0 0.0
2018-Jul-11 03:26N 53°25' E 014°34'0 0.0
2018-Jul-11 02:56N 53°25' E 014°34'0 0.0
2018-Jul-11 02:29N 53°25' E 014°34'0 0.0
2018-Jul-11 01:59N 53°25' E 014°34'0 0.0
2018-Jul-11 01:26N 53°25' E 014°34'0 0.0
2018-Jul-11 00:56N 53°25' E 014°34'0 0.0
2018-Jul-11 00:26N 53°25' E 014°34'0 0.0
2018-Jul-10 23:53N 53°25' E 014°34'0 0.0
2018-Jul-10 23:29N 53°25' E 014°34'0 0.0
2018-Jul-10 22:56N 53°25' E 014°34'0 0.0
2018-Jul-10 22:29N 53°25' E 014°34'0 0.0
2018-Jul-10 21:53N 53°25' E 014°34'0 0.0
2018-Jul-10 21:23N 53°25' E 014°34'0 0.0
2018-Jul-10 20:56N 53°25' E 014°34'0 0.0
2018-Jul-10 20:23N 53°25' E 014°34'0 0.0
2018-Jul-10 19:56N 53°25' E 014°34'0 0.0
2018-Jul-10 19:17N 53°25' E 014°34'0 0.0
2018-Jul-10 18:53N 53°25' E 014°34'0 0.0
2018-Jul-10 18:29N 53°25' E 014°34'0 0.0
2018-Jul-10 17:59N 53°25' E 014°34'0 0.0
2018-Jul-10 17:29N 53°25' E 014°34'0 0.0
2018-Jul-10 16:56N 53°25' E 014°34'0 0.0
2018-Jul-10 16:29N 53°25' E 014°34'0 0.0
2018-Jul-10 15:59N 53°25' E 014°34'0 0.0
2018-Jul-10 15:29N 53°25' E 014°34'0 0.0
2018-Jul-10 14:59N 53°25' E 014°34'0 0.0
2018-Jul-10 14:26N 53°25' E 014°34'0 0.0
2018-Jul-10 13:56N 53°25' E 014°34'0 0.0
2018-Jul-10 13:23N 53°25' E 014°34'  

Dump ship's entire track history